Time;durP1;ratioP1;P1;durP2;ratioP2;P2;SDS_P1;SDS_P2;PMS_P1;PMS_P2;Temp;Humidity;BMP_temperature;BMP_pressure;BME280_temperature;BME280_humidity;BME280_pressure;Samples;Min_cycle;Max_cycle;Signal;HPM_P1;HPM_P2
2022/04/16 00:02:03;;;;;;;1.23;1.13;;;;;;;;;;4948523;29;20218;-62
2022/04/16 00:04:30;;;;;;;1.70;1.17;;;;;;;;;;4949213;29;20199;-61
2022/04/16 00:06:57;;;;;;;1.00;1.00;;;;;;;;;;4948501;29;20215;-61
2022/04/16 00:09:24;;;;;;;1.80;1.40;;;;;;;;;;4948020;29;20203;-62
2022/04/16 00:11:53;;;;;;;1.23;1.13;;;;;;;;;;4948505;28;20207;-62
2022/04/16 00:14:20;;;;;;;1.50;1.40;;;;;;;;;;4943195;29;20234;-63
2022/04/16 00:16:47;;;;;;;1.23;1.23;;;;;;;;;;4948396;29;20207;-63
2022/04/16 00:19:14;;;;;;;1.30;1.20;;;;;;;;;;4948883;29;20658;-62
2022/04/16 00:21:42;;;;;;;1.10;1.10;;;;;;;;;;4948341;29;20214;-62
2022/04/16 00:24:09;;;;;;;1.10;1.00;;;;;;;;;;4947656;29;20273;-61
2022/04/16 00:26:38;;;;;;;1.00;1.00;;;;;;;;;;4946924;29;20230;-61
2022/04/16 00:29:07;;;;;;;1.30;1.30;;;;;;;;;;4946981;29;20211;-61
2022/04/16 00:31:34;;;;;;;1.43;1.43;;;;;;;;;;4945742;29;20624;-61
2022/04/16 00:34:02;;;;;;;1.10;1.10;;;;;;;;;;4948265;29;20257;-62
2022/04/16 00:36:29;;;;;;;1.90;1.50;;;;;;;;;;4946478;29;20294;-61
2022/04/16 00:38:56;;;;;;;1.10;1.10;;;;;;;;;;4948298;29;20650;-62
2022/04/16 00:41:23;;;;;;;1.57;1.50;;;;;;;;;;4946029;29;20203;-61
2022/04/16 00:43:52;;;;;;;1.57;1.47;;;;;;;;;;4948373;29;20634;-61
2022/04/16 00:46:20;;;;;;;1.20;1.20;;;;;;;;;;4946878;29;20217;-61
2022/04/16 00:48:48;;;;;;;1.30;1.30;;;;;;;;;;4949389;29;20215;-61
2022/04/16 00:51:15;;;;;;;1.30;1.20;;;;;;;;;;4948488;29;20230;-62
2022/04/16 00:53:42;;;;;;;1.37;1.27;;;;;;;;;;4948878;29;20587;-61
2022/04/16 00:56:11;;;;;;;1.40;1.33;;;;;;;;;;4947186;29;20207;-61
2022/04/16 00:58:38;;;;;;;1.50;1.40;;;;;;;;;;4946568;29;20300;-61
2022/04/16 01:01:05;;;;;;;1.60;1.50;;;;;;;;;;4949143;29;20203;-62
2022/04/16 01:03:33;;;;;;;1.10;1.10;;;;;;;;;;4948324;29;20207;-61
2022/04/16 01:06:00;;;;;;;1.30;1.30;;;;;;;;;;4946262;29;20266;-61
2022/04/16 01:08:27;;;;;;;2.00;1.47;;;;;;;;;;4947031;29;20718;-62
2022/04/16 01:10:54;;;;;;;1.23;1.13;;;;;;;;;;4946117;29;20553;-63
2022/04/16 01:13:21;;;;;;;1.40;1.40;;;;;;;;;;4947323;29;20270;-61
2022/04/16 01:15:48;;;;;;;1.27;1.17;;;;;;;;;;4948307;29;20227;-62
2022/04/16 01:18:16;;;;;;;1.53;1.43;;;;;;;;;;4948325;29;20670;-61
2022/04/16 01:20:45;;;;;;;1.90;1.80;;;;;;;;;;4946308;29;20214;-61
2022/04/16 01:23:14;;;;;;;2.97;1.43;;;;;;;;;;4942698;28;20219;-61
2022/04/16 01:25:42;;;;;;;1.50;1.40;;;;;;;;;;4968512;28;20234;-62
2022/04/16 01:28:10;;;;;;;1.70;1.60;;;;;;;;;;4958221;28;20208;-61
2022/04/16 01:30:38;;;;;;;1.70;1.60;;;;;;;;;;4947754;29;20854;-61
2022/04/16 01:33:05;;;;;;;2.00;1.90;;;;;;;;;;4952449;29;20641;-62
2022/04/16 01:35:32;;;;;;;1.97;1.87;;;;;;;;;;4947154;29;20231;-61
2022/04/16 01:37:59;;;;;;;1.67;1.67;;;;;;;;;;4950661;29;20215;-62
2022/04/16 01:40:28;;;;;;;1.77;1.67;;;;;;;;;;4951247;29;20219;-61
2022/04/16 01:42:58;;;;;;;1.97;1.87;;;;;;;;;;4951239;29;20215;-61
2022/04/16 01:45:26;;;;;;;2.80;1.63;;;;;;;;;;4951265;29;20203;-62
2022/04/16 01:47:54;;;;;;;1.60;1.60;;;;;;;;;;4949767;29;20688;-61
2022/04/16 01:50:22;;;;;;;2.20;1.70;;;;;;;;;;4950148;29;20250;-62
2022/04/16 01:52:49;;;;;;;1.90;1.80;;;;;;;;;;4949123;29;20211;-62
2022/04/16 01:55:16;;;;;;;2.00;1.90;;;;;;;;;;4951520;29;20234;-62
2022/04/16 01:57:44;;;;;;;2.97;2.27;;;;;;;;;;4950389;29;20206;-61
2022/04/16 02:00:14;;;;;;;2.10;2.00;;;;;;;;;;4950937;29;20211;-62
2022/04/16 02:02:42;;;;;;;1.57;1.40;;;;;;;;;;4951918;29;20315;-61
2022/04/16 02:05:10;;;;;;;2.00;1.90;;;;;;;;;;4951509;29;20226;-61
2022/04/16 02:07:38;;;;;;;1.87;1.77;;;;;;;;;;4951250;29;20270;-61
2022/04/16 02:10:05;;;;;;;1.73;1.63;;;;;;;;;;4951233;29;20238;-61
2022/04/16 02:12:32;;;;;;;3.17;1.87;;;;;;;;;;4949770;29;20629;-62
2022/04/16 02:15:02;;;;;;;2.00;1.80;;;;;;;;;;4951856;29;20285;-61
2022/04/16 02:17:32;;;;;;;1.57;1.50;;;;;;;;;;4948198;29;20357;-61
2022/04/16 02:19:59;;;;;;;1.73;1.63;;;;;;;;;;4951170;29;20231;-61
2022/04/16 02:22:26;;;;;;;2.43;2.17;;;;;;;;;;4951078;29;20207;-61
2022/04/16 02:24:53;;;;;;;1.60;1.60;;;;;;;;;;4951650;29;20674;-62
2022/04/16 02:27:20;;;;;;;1.90;1.80;;;;;;;;;;4950173;29;20273;-62
2022/04/16 02:29:47;;;;;;;2.07;1.87;;;;;;;;;;4948182;29;20803;-61
2022/04/16 02:32:16;;;;;;;1.87;1.50;;;;;;;;;;4950355;29;20207;-61
2022/04/16 02:34:43;;;;;;;1.43;1.43;;;;;;;;;;4950089;28;20231;-61
2022/04/16 02:37:10;;;;;;;3.00;1.80;;;;;;;;;;4950710;29;20799;-60
2022/04/16 02:39:37;;;;;;;2.13;2.00;;;;;;;;;;4950698;29;20207;-61
2022/04/16 02:42:05;;;;;;;3.23;1.70;;;;;;;;;;4949875;29;20207;-61
2022/04/16 02:47:18;;;;;;;2.23;2.03;;;;;;;;;;4949026;29;20206;-61
2022/04/16 02:49:45;;;;;;;2.37;1.80;;;;;;;;;;4950931;29;20199;-61
2022/04/16 02:52:12;;;;;;;2.10;2.00;;;;;;;;;;4948480;29;20847;-63
2022/04/16 02:54:39;;;;;;;2.30;2.10;;;;;;;;;;4950222;29;20697;-61
2022/04/16 02:57:06;;;;;;;2.23;2.00;;;;;;;;;;4950112;29;20218;-61
2022/04/16 02:59:35;;;;;;;2.00;2.00;;;;;;;;;;4950352;29;20219;-61
2022/04/16 03:02:02;;;;;;;1.53;1.53;;;;;;;;;;4951164;29;20675;-61
2022/04/16 03:04:30;;;;;;;2.07;1.97;;;;;;;;;;4950965;29;20211;-61
2022/04/16 03:06:57;;;;;;;2.97;2.20;;;;;;;;;;4951260;29;20219;-61
2022/04/16 03:09:24;;;;;;;1.93;1.83;;;;;;;;;;4949039;29;20226;-62
2022/04/16 03:11:52;;;;;;;2.07;1.97;;;;;;;;;;4948066;29;20226;-61
2022/04/16 03:19:50;;;;;;;2.37;2.07;;;;;;;;;;4952149;29;20198;-61
2022/04/16 03:22:17;;;;;;;2.50;2.40;;;;;;;;;;4934194;29;20638;-61
2022/04/16 03:24:44;;;;;;;2.60;2.40;;;;;;;;;;4928809;29;20267;-63
2022/04/16 03:27:11;;;;;;;2.20;2.10;;;;;;;;;;4930631;29;20255;-61
2022/04/16 03:29:38;;;;;;;3.53;2.37;;;;;;;;;;4932431;29;20247;-61
2022/04/16 03:32:06;;;;;;;4.57;2.57;;;;;;;;;;4945266;29;20207;-62
2022/04/16 03:34:33;;;;;;;3.20;2.43;;;;;;;;;;4949191;29;20697;-61
2022/04/16 03:37:01;;;;;;;2.77;2.27;;;;;;;;;;4937364;29;20218;-62
2022/04/16 03:39:28;;;;;;;2.80;2.60;;;;;;;;;;4930653;29;20683;-61
2022/04/16 03:41:55;;;;;;;2.97;2.53;;;;;;;;;;4941420;29;20266;-61
2022/04/16 03:44:22;;;;;;;3.80;2.27;;;;;;;;;;4948779;28;20662;-61
2022/04/16 03:46:49;;;;;;;6.27;3.30;;;;;;;;;;4951217;29;20223;-61
2022/04/16 03:49:16;;;;;;;0.90;0.90;;;;;;;;;;4936603;29;20286;-62
2022/04/16 03:51:44;;;;;;;4.27;3.03;;;;;;;;;;4931310;29;20278;-61
2022/04/16 04:00:00;;;;;;;3.30;2.50;;;;;;;;;;4947761;29;20218;-62
2022/04/16 04:02:27;;;;;;;3.03;2.63;;;;;;;;;;4949478;29;20336;-61
2022/04/16 04:04:54;;;;;;;2.50;2.30;;;;;;;;;;4951173;29;20243;-65
2022/04/16 04:07:21;;;;;;;2.73;2.53;;;;;;;;;;4950572;29;20762;-61
2022/04/16 04:09:50;;;;;;;3.23;2.77;;;;;;;;;;4938550;29;20223;-62
2022/04/16 04:12:17;;;;;;;4.17;3.03;;;;;;;;;;4935364;29;20227;-61
2022/04/16 04:14:45;;;;;;;3.90;3.00;;;;;;;;;;4945689;29;20241;-61
2022/04/16 04:17:12;;;;;;;3.20;2.87;;;;;;;;;;4938847;29;20234;-61
2022/04/16 04:19:40;;;;;;;4.73;2.57;;;;;;;;;;4936412;29;20203;-61
2022/04/16 04:22:08;;;;;;;4.83;2.13;;;;;;;;;;4949765;29;20233;-61
2022/04/16 04:24:37;;;;;;;2.27;2.00;;;;;;;;;;4943550;29;20232;-62
2022/04/16 04:27:06;;;;;;;2.97;2.40;;;;;;;;;;4932203;29;20318;-61
2022/04/16 04:29:33;;;;;;;2.80;2.57;;;;;;;;;;4946663;28;20238;-62
2022/04/16 04:32:00;;;;;;;3.23;2.93;;;;;;;;;;4931026;29;20683;-62
2022/04/16 04:34:27;;;;;;;4.80;2.90;;;;;;;;;;4928787;29;20262;-61
2022/04/16 04:36:54;;;;;;;3.23;3.00;;;;;;;;;;4943940;29;20235;-62
2022/04/16 04:39:21;;;;;;;2.37;2.23;;;;;;;;;;4931023;29;20212;-62
2022/04/16 04:41:48;;;;;;;3.40;3.10;;;;;;;;;;4947775;29;20225;-62
2022/04/16 04:44:17;;;;;;;2.60;2.23;;;;;;;;;;4932048;29;20216;-61
2022/04/16 04:46:44;;;;;;;2.90;2.30;;;;;;;;;;4947964;29;20226;-61
2022/04/16 04:49:12;;;;;;;2.87;2.67;;;;;;;;;;4949396;29;20726;-61
2022/04/16 04:51:39;;;;;;;3.87;2.80;;;;;;;;;;4935738;29;20513;-62
2022/04/16 04:54:06;;;;;;;1.83;1.17;;;;;;;;;;4930818;29;20215;-61
2022/04/16 04:56:34;;;;;;;2.00;1.57;;;;;;;;;;4930342;29;20232;-61
2022/04/16 04:59:01;;;;;;;3.20;2.63;;;;;;;;;;4935886;29;20207;-61
2022/04/16 05:01:29;;;;;;;4.60;3.20;;;;;;;;;;4944118;29;20688;-61
2022/04/16 05:03:56;;;;;;;2.50;2.40;;;;;;;;;;4952979;29;20572;-62
2022/04/16 05:06:23;;;;;;;2.50;2.30;;;;;;;;;;4934761;29;20298;-62
2022/04/16 05:08:51;;;;;;;2.60;2.40;;;;;;;;;;4934313;29;20216;-61
2022/04/16 05:11:18;;;;;;;2.30;1.73;;;;;;;;;;4947073;29;20212;-61
2022/04/16 05:13:45;;;;;;;2.73;2.53;;;;;;;;;;4934883;29;20224;-62
2022/04/16 05:16:13;;;;;;;3.67;2.43;;;;;;;;;;4934140;29;20854;-61
2022/04/16 05:18:41;;;;;;;2.77;2.50;;;;;;;;;;4933955;29;20208;-62
2022/04/16 05:21:08;;;;;;;2.83;2.63;;;;;;;;;;4935410;29;20215;-61
2022/04/16 05:23:39;;;;;;;2.13;1.70;;;;;;;;;;4952995;29;20210;-61
2022/04/16 05:26:06;;;;;;;2.80;2.43;;;;;;;;;;4953503;29;20320;-62
2022/04/16 05:28:33;;;;;;;2.93;2.70;;;;;;;;;;4952758;29;20211;-61
2022/04/16 05:31:01;;;;;;;3.17;2.73;;;;;;;;;;4952862;29;20235;-61
2022/04/16 05:36:14;;;;;;;2.50;2.30;;;;;;;;;;4953186;29;20640;-61
2022/04/16 05:38:41;;;;;;;3.67;2.67;;;;;;;;;;4944355;29;20274;-61
2022/04/16 05:41:08;;;;;;;4.30;2.57;;;;;;;;;;4934089;29;20207;-62
2022/04/16 05:43:35;;;;;;;5.03;2.57;;;;;;;;;;4950593;29;20273;-61
2022/04/16 05:46:03;;;;;;;3.77;2.07;;;;;;;;;;4952872;29;20211;-61
2022/04/16 05:48:30;;;;;;;2.70;1.90;;;;;;;;;;4935669;29;20295;-62
2022/04/16 05:50:57;;;;;;;2.50;2.30;;;;;;;;;;4940306;29;20215;-61
2022/04/16 05:53:26;;;;;;;2.40;2.20;;;;;;;;;;4939239;29;20593;-62
2022/04/16 05:55:53;;;;;;;3.53;2.47;;;;;;;;;;4933394;29;20231;-61
2022/04/16 05:58:21;;;;;;;1.90;1.50;;;;;;;;;;4933297;29;20223;-62
2022/04/16 06:00:48;;;;;;;2.20;1.93;;;;;;;;;;4934042;29;20211;-61
2022/04/16 06:03:15;;;;;;;1.60;1.60;;;;;;;;;;4942378;29;20596;-61
2022/04/16 06:05:42;;;;;;;1.83;1.73;;;;;;;;;;4950430;29;20306;-61
2022/04/16 06:08:09;;;;;;;1.47;1.37;;;;;;;;;;4951962;28;20666;-61
2022/04/16 06:10:37;;;;;;;1.03;0.90;;;;;;;;;;4952610;29;20215;-61
2022/04/16 06:13:05;;;;;;;2.00;1.83;;;;;;;;;;4947139;29;20221;-61
2022/04/16 06:15:32;;;;;;;2.03;1.77;;;;;;;;;;4944064;29;20223;-61
2022/04/16 06:17:59;;;;;;;2.00;1.90;;;;;;;;;;4952917;29;20306;-61
2022/04/16 06:20:26;;;;;;;1.20;1.20;;;;;;;;;;4933933;29;20207;-61
2022/04/16 06:22:54;;;;;;;2.23;2.13;;;;;;;;;;4933815;29;20581;-61
2022/04/16 06:25:22;;;;;;;2.60;2.10;;;;;;;;;;4951995;29;20313;-61
2022/04/16 06:27:51;;;;;;;2.27;1.83;;;;;;;;;;4952093;29;20313;-61
2022/04/16 06:30:18;;;;;;;3.03;1.77;;;;;;;;;;4951478;28;20738;-61
2022/04/16 06:32:45;;;;;;;1.80;1.70;;;;;;;;;;4943721;29;20211;-62
2022/04/16 06:35:12;;;;;;;2.17;1.83;;;;;;;;;;4946312;29;20617;-61
2022/04/16 06:37:40;;;;;;;2.07;1.90;;;;;;;;;;4951918;29;20254;-61
2022/04/16 06:40:08;;;;;;;2.83;2.50;;;;;;;;;;4952065;29;20677;-61
2022/04/16 06:42:35;;;;;;;1.33;1.23;;;;;;;;;;4951829;29;20211;-61
2022/04/16 06:45:04;;;;;;;2.53;1.97;;;;;;;;;;4946554;29;20207;-61
2022/04/16 06:47:31;;;;;;;2.37;2.27;;;;;;;;;;4932812;29;20208;-62
2022/04/16 06:49:58;;;;;;;3.97;2.30;;;;;;;;;;4941698;29;20618;-63
2022/04/16 06:52:25;;;;;;;2.57;2.20;;;;;;;;;;4948185;29;20216;-62
2022/04/16 06:54:52;;;;;;;1.07;0.97;;;;;;;;;;4938596;29;20322;-61
2022/04/16 06:57:19;;;;;;;0.77;0.77;;;;;;;;;;4936158;28;20714;-61
2022/04/16 06:59:46;;;;;;;1.83;1.73;;;;;;;;;;4951941;28;20270;-62
2022/04/16 07:02:15;;;;;;;3.53;2.57;;;;;;;;;;4951329;29;20214;-62
2022/04/16 07:04:42;;;;;;;1.37;1.27;;;;;;;;;;4949238;29;20313;-62
2022/04/16 07:07:09;;;;;;;1.73;1.63;;;;;;;;;;4951534;29;20302;-61
2022/04/16 07:09:38;;;;;;;2.60;2.40;;;;;;;;;;4938704;29;20219;-62
2022/04/16 07:12:07;;;;;;;1.60;1.50;;;;;;;;;;4950373;29;20219;-62
2022/04/16 07:14:34;;;;;;;2.83;2.00;;;;;;;;;;4950005;28;20772;-61
2022/04/16 07:17:01;;;;;;;2.60;2.10;;;;;;;;;;4942565;29;20251;-62
2022/04/16 07:19:30;;;;;;;1.50;1.40;;;;;;;;;;4950797;28;20309;-61
2022/04/16 07:21:57;;;;;;;1.77;1.67;;;;;;;;;;4934989;29;20224;-63
2022/04/16 07:24:25;;;;;;;1.47;1.37;;;;;;;;;;4930276;29;20215;-63
2022/04/16 07:26:53;;;;;;;2.27;1.37;;;;;;;;;;4939997;29;20706;-62
2022/04/16 07:29:20;;;;;;;4.40;0.97;;;;;;;;;;4949298;29;20305;-62
2022/04/16 07:31:47;;;;;;;1.23;1.13;;;;;;;;;;4950491;29;20748;-61
2022/04/16 07:34:14;;;;;;;1.33;1.33;;;;;;;;;;4937431;29;20208;-61
2022/04/16 07:36:43;;;;;;;1.00;1.00;;;;;;;;;;4931988;29;20242;-62
2022/04/16 07:39:10;;;;;;;1.30;1.03;;;;;;;;;;4946716;29;20262;-62
2022/04/16 07:41:37;;;;;;;1.80;1.70;;;;;;;;;;4946340;29;20207;-62
2022/04/16 07:44:04;;;;;;;1.37;1.27;;;;;;;;;;4941448;29;20675;-62
2022/04/16 07:46:32;;;;;;;4.50;2.53;;;;;;;;;;4932306;29;20730;-61
2022/04/16 07:48:59;;;;;;;1.47;1.10;;;;;;;;;;4932258;29;20223;-62
2022/04/16 07:51:26;;;;;;;1.30;1.30;;;;;;;;;;4936686;29;20207;-62
2022/04/16 07:53:55;;;;;;;0.93;0.87;;;;;;;;;;4949948;29;20925;-62
2022/04/16 07:56:23;;;;;;;1.80;0.80;;;;;;;;;;4932291;29;20690;-61
2022/04/16 07:58:50;;;;;;;1.07;1.07;;;;;;;;;;4934219;29;20270;-61
2022/04/16 08:01:17;;;;;;;1.10;1.10;;;;;;;;;;4950998;29;20291;-61
2022/04/16 08:03:44;;;;;;;1.13;1.07;;;;;;;;;;4932071;29;20219;-61
2022/04/16 08:06:11;;;;;;;0.93;0.93;;;;;;;;;;4938172;29;20207;-62
2022/04/16 08:08:38;;;;;;;0.80;0.80;;;;;;;;;;4950017;29;20203;-61
2022/04/16 08:11:07;;;;;;;0.80;0.80;;;;;;;;;;4945667;29;20654;-61
2022/04/16 08:13:34;;;;;;;0.50;0.50;;;;;;;;;;4949747;29;20294;-61
2022/04/16 08:16:01;;;;;;;0.73;0.73;;;;;;;;;;4932103;29;20825;-64
2022/04/16 08:18:28;;;;;;;0.97;0.97;;;;;;;;;;4931198;29;20266;-59
2022/04/16 08:20:55;;;;;;;0.60;0.60;;;;;;;;;;4942260;29;20301;-62
2022/04/16 08:23:22;;;;;;;0.83;0.63;;;;;;;;;;4949760;29;20692;-61
2022/04/16 08:25:49;;;;;;;0.67;0.67;;;;;;;;;;4949734;29;20237;-61
2022/04/16 08:28:18;;;;;;;1.23;1.23;;;;;;;;;;4950001;29;20207;-61
2022/04/16 08:30:45;;;;;;;0.60;0.60;;;;;;;;;;4938646;28;20245;-61
2022/04/16 08:33:16;;;;;;;0.20;0.20;;;;;;;;;;4931259;29;20238;-62
2022/04/16 08:35:43;;;;;;;0.60;0.60;;;;;;;;;;4941390;29;20211;-60
2022/04/16 08:38:11;;;;;;;0.60;0.60;;;;;;;;;;4949712;29;20230;-61
2022/04/16 08:40:38;;;;;;;0.50;0.50;;;;;;;;;;4942122;29;20224;-61
2022/04/16 08:43:07;;;;;;;0.20;0.20;;;;;;;;;;4944703;29;20215;-60
2022/04/16 08:45:37;;;;;;;0.53;0.50;;;;;;;;;;4943914;29;20203;-62
2022/04/16 08:48:05;;;;;;;0.40;0.40;;;;;;;;;;4946520;29;21982;-63
2022/04/16 08:50:33;;;;;;;0.40;0.40;;;;;;;;;;4943715;29;20313;-62
2022/04/16 08:53:01;;;;;;;1.40;0.97;;;;;;;;;;4945883;29;20211;-62
2022/04/16 08:55:29;;;;;;;0.97;0.77;;;;;;;;;;4937800;29;20307;-63
2022/04/16 08:57:56;;;;;;;0.93;0.93;;;;;;;;;;4933807;29;20687;-61
2022/04/16 09:00:23;;;;;;;0.90;0.90;;;;;;;;;;4930674;29;20670;-62
2022/04/16 09:02:52;;;;;;;1.00;1.00;;;;;;;;;;4937623;29;20689;-63
2022/04/16 09:05:20;;;;;;;1.07;0.97;;;;;;;;;;4937943;29;20219;-62
2022/04/16 09:07:47;;;;;;;0.73;0.73;;;;;;;;;;4942156;29;20210;-63
2022/04/16 09:10:15;;;;;;;0.50;0.50;;;;;;;;;;4949528;29;20218;-62
2022/04/16 09:12:42;;;;;;;0.67;0.67;;;;;;;;;;4945710;29;20231;-63
2022/04/16 09:15:09;;;;;;;1.17;1.00;;;;;;;;;;4929603;29;20207;-62
2022/04/16 09:17:37;;;;;;;1.10;1.00;;;;;;;;;;4931897;29;20279;-62
2022/04/16 09:20:08;;;;;;;0.97;0.97;;;;;;;;;;4929889;29;20231;-62
2022/04/16 09:22:38;;;;;;;1.37;1.20;;;;;;;;;;4930774;29;20742;-63
2022/04/16 09:25:06;;;;;;;1.27;1.20;;;;;;;;;;4929813;29;20216;-62
2022/04/16 09:27:43;;;;;;;1.17;0.93;;;;;;;;;;4930014;29;20687;-62
2022/04/16 09:30:10;;;;;;;0.97;0.80;;;;;;;;;;4926619;29;20239;-64
2022/04/16 09:32:44;;;;;;;0.97;0.63;;;;;;;;;;4935132;29;20211;-62
2022/04/16 09:35:21;;;;;;;1.00;1.00;;;;;;;;;;4948820;29;20245;-61
2022/04/16 09:37:51;;;;;;;1.27;0.77;;;;;;;;;;4936796;29;20228;-62
2022/04/16 09:40:18;;;;;;;0.33;0.33;;;;;;;;;;4930547;29;20822;-62
2022/04/16 09:42:52;;;;;;;0.30;0.30;;;;;;;;;;4946896;28;20203;-63
2022/04/16 09:45:19;;;;;;;0.60;0.60;;;;;;;;;;4933994;29;20211;-63
2022/04/16 09:47:48;;;;;;;0.90;0.80;;;;;;;;;;4932910;29;20270;-63
2022/04/16 09:50:18;;;;;;;1.03;0.97;;;;;;;;;;4933165;29;20242;-60
2022/04/16 09:52:45;;;;;;;0.77;0.77;;;;;;;;;;4932545;29;20278;-62
2022/04/16 09:55:13;;;;;;;1.50;0.90;;;;;;;;;;4934797;29;20623;-62
2022/04/16 09:57:41;;;;;;;1.03;0.50;;;;;;;;;;4932655;29;20259;-62
2022/04/16 10:00:09;;;;;;;1.30;1.23;;;;;;;;;;4950066;29;20203;-62
2022/04/16 10:02:37;;;;;;;0.47;0.47;;;;;;;;;;4951737;29;20702;-62
2022/04/16 10:05:05;;;;;;;0.40;0.40;;;;;;;;;;4939387;29;20696;-63
2022/04/16 10:07:35;;;;;;;0.90;0.90;;;;;;;;;;4932643;29;20612;-61
2022/04/16 10:10:06;;;;;;;1.10;1.00;;;;;;;;;;4945747;29;20208;-63
2022/04/16 10:15:20;;;;;;;0.87;0.87;;;;;;;;;;4940315;29;20249;-61
2022/04/16 10:17:49;;;;;;;0.80;0.80;;;;;;;;;;4939397;29;20294;-61
2022/04/16 10:20:17;;;;;;;0.93;0.93;;;;;;;;;;4951094;29;20219;-62
2022/04/16 10:22:54;;;;;;;1.07;1.07;;;;;;;;;;4947385;29;20214;-63
2022/04/16 10:25:39;;;;;;;0.67;0.67;;;;;;;;;;4947121;29;20294;-60
2022/04/16 10:28:07;;;;;;;0.40;0.40;;;;;;;;;;4933040;29;20235;-66
2022/04/16 10:30:38;;;;;;;1.00;0.57;;;;;;;;;;4932340;29;20453;-71
2022/04/16 10:33:16;;;;;;;1.40;0.80;;;;;;;;;;4948013;29;20250;-64
2022/04/16 10:35:49;;;;;;;0.67;0.67;;;;;;;;;;4932553;29;20382;-63
2022/04/16 10:38:23;;;;;;;0.27;0.27;;;;;;;;;;4940213;29;20242;-62
2022/04/16 10:40:55;;;;;;;0.77;0.77;;;;;;;;;;4935020;29;20238;-63
2022/04/16 10:43:26;;;;;;;1.13;1.10;;;;;;;;;;4942983;29;20309;-62
2022/04/16 10:45:57;;;;;;;0.80;0.80;;;;;;;;;;4937544;29;20223;-62
2022/04/16 10:48:24;;;;;;;0.80;0.80;;;;;;;;;;4932517;29;20220;-62
2022/04/16 10:50:53;;;;;;;1.20;1.10;;;;;;;;;;4933083;29;20208;-63
2022/04/16 10:53:29;;;;;;;0.47;0.47;;;;;;;;;;4933346;29;20208;-63
2022/04/16 10:55:58;;;;;;;0.93;0.93;;;;;;;;;;4944993;28;20586;-64
2022/04/16 10:58:28;;;;;;;1.60;0.90;;;;;;;;;;4949841;29;20748;-65
2022/04/16 11:01:05;;;;;;;0.43;0.40;;;;;;;;;;4950410;29;20221;-61
2022/04/16 11:03:33;;;;;;;0.40;0.40;;;;;;;;;;4937984;29;20222;-63
2022/04/16 11:06:03;;;;;;;1.87;0.63;;;;;;;;;;4943125;29;20311;-60
2022/04/16 11:08:34;;;;;;;0.70;0.70;;;;;;;;;;4932078;29;20307;-62
2022/04/16 11:11:02;;;;;;;0.77;0.77;;;;;;;;;;4947188;29;20294;-61
2022/04/16 11:13:30;;;;;;;1.57;1.00;;;;;;;;;;4949703;29;20255;-63
2022/04/16 11:15:58;;;;;;;0.80;0.80;;;;;;;;;;4941719;29;20215;-65
2022/04/16 11:18:25;;;;;;;0.40;0.40;;;;;;;;;;4948083;29;20702;-62
2022/04/16 11:20:56;;;;;;;0.50;0.50;;;;;;;;;;4946628;29;20212;-66
2022/04/16 11:23:26;;;;;;;1.20;1.20;;;;;;;;;;4950436;29;20455;-67
2022/04/16 11:34:17;;;;;;;0.75;0.75;;;;;;;;;;4941831;29;20713;-63
2022/04/16 11:36:45;;;;;;;0.90;0.90;;;;;;;;;;4946091;29;20222;-66
2022/04/16 11:39:18;;;;;;;1.07;0.50;;;;;;;;;;4943325;29;20322;-66
2022/04/16 11:41:51;;;;;;;1.13;1.13;;;;;;;;;;4926893;29;20218;-62
2022/04/16 11:44:18;;;;;;;0.93;0.93;;;;;;;;;;4929508;29;20219;-63
2022/04/16 11:46:45;;;;;;;1.10;0.70;;;;;;;;;;4945591;29;20686;-61
2022/04/16 11:49:12;;;;;;;0.88;0.85;;;;;;;;;;4947303;29;20322;-61
2022/04/16 11:51:40;;;;;;;0.52;0.47;;;;;;;;;;4943828;29;20266;-62
2022/04/16 11:54:09;;;;;;;1.45;0.73;;;;;;;;;;4944438;29;20229;-62
2022/04/16 11:56:38;;;;;;;0.55;0.55;;;;;;;;;;4936298;29;20227;-61
2022/04/16 11:59:06;;;;;;;1.05;0.70;;;;;;;;;;4932707;29;20242;-63
2022/04/16 12:01:36;;;;;;;0.90;0.90;;;;;;;;;;4940784;29;20314;-64
2022/04/16 12:04:09;;;;;;;0.67;0.67;;;;;;;;;;4946037;29;20211;-64
2022/04/16 12:06:37;;;;;;;0.70;0.70;;;;;;;;;;4946479;28;20745;-63
2022/04/16 12:09:05;;;;;;;0.75;0.75;;;;;;;;;;4946625;29;20269;-62
2022/04/16 12:11:34;;;;;;;1.05;1.00;;;;;;;;;;4935025;29;20695;-63
2022/04/16 12:14:01;;;;;;;0.60;0.60;;;;;;;;;;4942966;29;20692;-64
2022/04/16 12:16:38;;;;;;;1.15;0.60;;;;;;;;;;4945143;29;20652;-62
2022/04/16 12:19:05;;;;;;;0.50;0.50;;;;;;;;;;4942692;29;20234;-63
2022/04/16 12:21:43;;;;;;;4.13;0.50;;;;;;;;;;4942261;29;20233;-66
2022/04/16 12:24:12;;;;;;;0.60;0.60;;;;;;;;;;4942973;29;20233;-64
2022/04/16 12:26:48;;;;;;;0.30;0.30;;;;;;;;;;4932109;29;20242;-67
2022/04/16 12:29:16;;;;;;;0.40;0.40;;;;;;;;;;4926282;29;20270;-64
2022/04/16 12:31:44;;;;;;;0.63;0.63;;;;;;;;;;4934447;29;20214;-63
2022/04/16 12:34:12;;;;;;;0.93;0.80;;;;;;;;;;4934385;29;20215;-65
2022/04/16 12:36:39;;;;;;;0.52;0.52;;;;;;;;;;4944588;29;20258;-63
2022/04/16 12:39:06;;;;;;;0.47;0.47;;;;;;;;;;4937775;29;20226;-63
2022/04/16 12:41:33;;;;;;;0.73;0.73;;;;;;;;;;4934286;29;20207;-63
2022/04/16 12:44:00;;;;;;;0.50;0.50;;;;;;;;;;4942463;29;20226;-63
2022/04/16 12:46:27;;;;;;;0.40;0.40;;;;;;;;;;4944734;29;20223;-63
2022/04/16 12:48:55;;;;;;;0.50;0.50;;;;;;;;;;4944796;29;20266;-62
2022/04/16 12:51:22;;;;;;;0.73;0.73;;;;;;;;;;4943673;29;20214;-62
2022/04/16 12:53:49;;;;;;;0.60;0.60;;;;;;;;;;4937538;29;20213;-62
2022/04/16 12:56:16;;;;;;;1.55;0.55;;;;;;;;;;4940744;29;20526;-62
2022/04/16 12:58:43;;;;;;;0.50;0.50;;;;;;;;;;4925351;29;20242;-67
2022/04/16 13:01:10;;;;;;;0.47;0.47;;;;;;;;;;4939363;29;20221;-64
2022/04/16 13:03:37;;;;;;;0.40;0.40;;;;;;;;;;4934258;29;20657;-65
2022/04/16 13:06:06;;;;;;;0.52;0.52;;;;;;;;;;4929586;29;20226;-63
2022/04/16 13:08:33;;;;;;;2.40;0.60;;;;;;;;;;4939592;29;20259;-63
2022/04/16 13:11:02;;;;;;;0.30;0.30;;;;;;;;;;4944493;29;20839;-65
2022/04/16 13:13:29;;;;;;;0.38;0.38;;;;;;;;;;4940192;29;20215;-62
2022/04/16 13:15:56;;;;;;;0.30;0.30;;;;;;;;;;4930682;29;20211;-64
2022/04/16 13:18:23;;;;;;;0.38;0.32;;;;;;;;;;4938241;29;20334;-62
2022/04/16 13:20:50;;;;;;;0.75;0.43;;;;;;;;;;4942679;29;20207;-63
2022/04/16 13:23:19;;;;;;;0.55;0.55;;;;;;;;;;4945338;29;20215;-62
2022/04/16 13:25:46;;;;;;;0.50;0.50;;;;;;;;;;4949190;29;20226;-63
2022/04/16 13:28:13;;;;;;;0.60;0.60;;;;;;;;;;4937909;29;20700;-63
2022/04/16 13:30:40;;;;;;;0.55;0.55;;;;;;;;;;4940271;29;20290;-64
2022/04/16 13:33:08;;;;;;;1.75;0.57;;;;;;;;;;4949311;29;20214;-62
2022/04/16 13:35:35;;;;;;;0.60;0.60;;;;;;;;;;4939862;29;20298;-62
2022/04/16 13:38:02;;;;;;;1.90;0.30;;;;;;;;;;4930981;29;20238;-62
2022/04/16 13:43:15;;;;;;;0.20;0.20;;;;;;;;;;4941494;29;20242;-61
2022/04/16 13:45:43;;;;;;;0.40;0.40;;;;;;;;;;4946189;29;20240;-71
2022/04/16 13:48:11;;;;;;;0.40;0.40;;;;;;;;;;4949793;29;20643;-61
2022/04/16 13:50:38;;;;;;;0.50;0.50;;;;;;;;;;4941022;29;20253;-63
2022/04/16 13:53:05;;;;;;;0.88;0.47;;;;;;;;;;4940274;29;20211;-63
2022/04/16 13:55:34;;;;;;;1.05;0.38;;;;;;;;;;4935534;29;20207;-64
2022/04/16 13:58:01;;;;;;;0.47;0.47;;;;;;;;;;4948125;28;20284;-63
2022/04/16 14:00:28;;;;;;;0.40;0.40;;;;;;;;;;4964151;28;20223;-65
2022/04/16 14:02:55;;;;;;;0.45;0.45;;;;;;;;;;4953129;28;20211;-64
2022/04/16 14:08:03;;;;;;;0.50;0.50;;;;;;;;;;4941427;29;20637;-63
2022/04/16 14:10:30;;;;;;;0.50;0.50;;;;;;;;;;4942105;29;20666;-64
2022/04/16 14:12:59;;;;;;;0.20;0.20;;;;;;;;;;4944123;29;20225;-63
2022/04/16 14:15:26;;;;;;;0.40;0.40;;;;;;;;;;4946666;29;20661;-63
2022/04/16 14:17:53;;;;;;;0.63;0.30;;;;;;;;;;4928665;29;20536;-64
2022/04/16 14:20:20;;;;;;;0.17;0.17;;;;;;;;;;4928099;29;20215;-64
2022/04/16 14:22:47;;;;;;;0.38;0.38;;;;;;;;;;4939801;29;20588;-63
2022/04/16 14:25:14;;;;;;;1.85;0.77;;;;;;;;;;4928308;29;20251;-64
2022/04/16 14:27:41;;;;;;;0.30;0.30;;;;;;;;;;4946109;29;20297;-64
2022/04/16 14:30:11;;;;;;;0.40;0.40;;;;;;;;;;4947292;28;20246;-64
2022/04/16 14:32:38;;;;;;;0.30;0.30;;;;;;;;;;4935688;29;20211;-64
2022/04/16 14:35:06;;;;;;;0.38;0.38;;;;;;;;;;4939166;29;20624;-64
2022/04/16 14:37:33;;;;;;;0.32;0.32;;;;;;;;;;4938551;29;20211;-65
2022/04/16 14:40:00;;;;;;;0.30;0.30;;;;;;;;;;4947349;29;20717;-64
2022/04/16 14:42:27;;;;;;;0.35;0.35;;;;;;;;;;4946114;29;20854;-64
2022/04/16 14:44:56;;;;;;;0.40;0.40;;;;;;;;;;4938062;29;20220;-64
2022/04/16 14:47:24;;;;;;;1.77;0.32;;;;;;;;;;4929339;29;20216;-64
2022/04/16 14:49:51;;;;;;;0.90;0.20;;;;;;;;;;4929733;29;20239;-63
2022/04/16 14:52:18;;;;;;;0.30;0.30;;;;;;;;;;4934530;29;20697;-64
2022/04/16 14:54:46;;;;;;;0.20;0.20;;;;;;;;;;4928500;29;20727;-64
2022/04/16 14:57:13;;;;;;;0.30;0.30;;;;;;;;;;4928506;29;20212;-64
2022/04/16 14:59:40;;;;;;;0.30;0.30;;;;;;;;;;4940570;29;20231;-66
2022/04/16 15:02:07;;;;;;;0.65;0.25;;;;;;;;;;4940308;29;20212;-64
2022/04/16 15:04:36;;;;;;;0.10;0.10;;;;;;;;;;4947237;29;20537;-64
2022/04/16 15:07:03;;;;;;;0.20;0.20;;;;;;;;;;4946939;29;21403;-63
2022/04/16 15:09:30;;;;;;;0.30;0.30;;;;;;;;;;4946988;29;20218;-64
2022/04/16 15:12:00;;;;;;;0.40;0.30;;;;;;;;;;4944931;29;20217;-61
2022/04/16 15:14:27;;;;;;;0.20;0.20;;;;;;;;;;4944612;29;20238;-74
2022/04/16 15:16:54;;;;;;;0.45;0.45;;;;;;;;;;4927421;29;20227;-64
2022/04/16 15:19:22;;;;;;;0.40;0.40;;;;;;;;;;4929526;29;20235;-65
2022/04/16 15:21:54;;;;;;;0.30;0.30;;;;;;;;;;4929495;29;20225;-65